AAL487 KSFO-KCLT
Flight info
| Callsign | AAL487 |
|---|---|
| Flight time | N/A |
| Altitude | 31000 |
| Route | NIITE4 SYRAH Q128 JSICA KROST BCE DVC/N0448F330 KD48U DAAYE KD48W ZAROS GCK CNU SGF HUMBO BAZOO TAZZA FILPZ4 |
| Aircraft | A321/M-SDE3FGHIRWY/LB1 |
Departure
| Time | N/A |
|---|---|
| Airport | San Francisco International Airport (KSFO) |
Arrival
| Time | 2026-05-05 19:27 |
|---|---|
| Airport | Charlotte Douglas International Airport (KCLT) |
| Time | Latitude | Longitude | Altitude | Speed | Heading |
|---|---|---|---|---|---|
| 2026-05-05 19:10 | 35.57613 | -82.06430 | 17410 ft | 350 kts | 108° |
| 2026-05-05 19:10 | 35.56996 | -82.03552 | 17020 ft | 347 kts | 106° |
| 2026-05-05 19:10 | 35.56458 | -82.00674 | 16629 ft | 344 kts | 105° |
| 2026-05-05 19:10 | 35.55962 | -81.97816 | 16239 ft | 340 kts | 104° |
| 2026-05-05 19:11 | 35.55483 | -81.94986 | 15858 ft | 337 kts | 104° |
| 2026-05-05 19:11 | 35.55003 | -81.92180 | 15480 ft | 334 kts | 105° |
| 2026-05-05 19:11 | 35.54517 | -81.89404 | 15104 ft | 331 kts | 105° |
| 2026-05-05 19:11 | 35.54024 | -81.86661 | 14730 ft | 328 kts | 105° |
| 2026-05-05 19:12 | 35.53528 | -81.83936 | 14361 ft | 325 kts | 106° |
| 2026-05-05 19:12 | 35.53031 | -81.81243 | 14000 ft | 322 kts | 106° |
| 2026-05-05 19:12 | 35.52535 | -81.78576 | 13632 ft | 320 kts | 106° |
| 2026-05-05 19:12 | 35.52044 | -81.75923 | 13271 ft | 317 kts | 106° |
| 2026-05-05 19:13 | 35.51561 | -81.73300 | 12914 ft | 313 kts | 106° |
| 2026-05-05 19:13 | 35.51086 | -81.70704 | 12558 ft | 311 kts | 107° |
| 2026-05-05 19:13 | 35.50612 | -81.68125 | 12207 ft | 308 kts | 107° |
| 2026-05-05 19:13 | 35.50146 | -81.65573 | 11857 ft | 306 kts | 107° |
| 2026-05-05 19:14 | 35.49688 | -81.63037 | 11503 ft | 303 kts | 107° |
| 2026-05-05 19:14 | 35.49261 | -81.60518 | 11155 ft | 302 kts | 101° |
| 2026-05-05 19:14 | 35.49191 | -81.57946 | 10856 ft | 302 kts | 88° |
| 2026-05-05 19:14 | 35.49449 | -81.55345 | 10658 ft | 310 kts | 86° |
| 2026-05-05 19:15 | 35.49705 | -81.52745 | 10462 ft | 311 kts | 86° |
| 2026-05-05 19:15 | 35.49963 | -81.50083 | 10287 ft | 308 kts | 86° |
| 2026-05-05 19:15 | 35.50242 | -81.47477 | 10133 ft | 308 kts | 83° |
| 2026-05-05 19:15 | 35.50708 | -81.44910 | 9996 ft | 310 kts | 72° |
| 2026-05-05 19:16 | 35.51733 | -81.42582 | 9835 ft | 311 kts | 59° |
| 2026-05-05 19:16 | 35.52608 | -81.40182 | 9358 ft | 307 kts | 85° |
| 2026-05-05 19:16 | 35.52728 | -81.37636 | 8957 ft | 301 kts | 93° |
| 2026-05-05 19:16 | 35.52697 | -81.35088 | 8385 ft | 297 kts | 95° |
| 2026-05-05 19:17 | 35.52652 | -81.32591 | 7873 ft | 286 kts | 95° |
| 2026-05-05 19:17 | 35.52639 | -81.30162 | 7537 ft | 283 kts | 94° |
| 2026-05-05 19:17 | 35.52657 | -81.27746 | 7187 ft | 283 kts | 93° |
| 2026-05-05 19:17 | 35.52704 | -81.25364 | 7251 ft | 265 kts | 92° |
| 2026-05-05 19:18 | 35.52762 | -81.23137 | 7525 ft | 266 kts | 92° |
| 2026-05-05 19:18 | 35.52825 | -81.20861 | 7800 ft | 267 kts | 92° |
| 2026-05-05 19:18 | 35.52737 | -81.18572 | 7764 ft | 273 kts | 100° |
| 2026-05-05 19:18 | 35.52502 | -81.16283 | 7370 ft | 267 kts | 102° |
| 2026-05-05 19:19 | 35.52255 | -81.14055 | 7050 ft | 262 kts | 102° |
| 2026-05-05 19:19 | 35.52007 | -81.11840 | 6674 ft | 262 kts | 102° |
| 2026-05-05 19:19 | 35.51752 | -81.09615 | 6299 ft | 264 kts | 102° |
| 2026-05-05 19:19 | 35.51493 | -81.07377 | 5920 ft | 266 kts | 102° |
| 2026-05-05 19:20 | 35.51235 | -81.05129 | 5546 ft | 266 kts | 102° |
| 2026-05-05 19:20 | 35.50975 | -81.02884 | 5164 ft | 266 kts | 102° |
| 2026-05-05 19:20 | 35.50688 | -81.00634 | 4793 ft | 265 kts | 108° |
| 2026-05-05 19:20 | 35.49971 | -80.98586 | 4414 ft | 260 kts | 129° |
| 2026-05-05 19:21 | 35.48674 | -80.97122 | 4096 ft | 249 kts | 157° |
| 2026-05-05 19:21 | 35.47080 | -80.96833 | 4135 ft | 228 kts | 194° |
| 2026-05-05 19:21 | 35.45548 | -80.97336 | 4155 ft | 228 kts | 189° |
| 2026-05-05 19:21 | 35.44021 | -80.97231 | 4183 ft | 213 kts | 175° |
| 2026-05-05 19:22 | 35.42597 | -80.97045 | 4169 ft | 197 kts | 177° |
| 2026-05-05 19:22 | 35.41301 | -80.96920 | 4178 ft | 177 kts | 178° |
| 2026-05-05 19:22 | 35.40121 | -80.96815 | 4074 ft | 164 kts | 178° |
| 2026-05-05 19:22 | 35.39005 | -80.96719 | 3894 ft | 158 kts | 178° |
| 2026-05-05 19:23 | 35.37918 | -80.96626 | 3710 ft | 156 kts | 178° |
| 2026-05-05 19:23 | 35.36839 | -80.96533 | 3507 ft | 155 kts | 179° |
| 2026-05-05 19:23 | 35.35751 | -80.96438 | 3292 ft | 156 kts | 178° |
| 2026-05-05 19:23 | 35.34674 | -80.96346 | 3091 ft | 154 kts | 178° |
| 2026-05-05 19:24 | 35.33603 | -80.96254 | 2893 ft | 154 kts | 179° |
| 2026-05-05 19:24 | 35.32538 | -80.96162 | 2693 ft | 155 kts | 179° |
| 2026-05-05 19:24 | 35.31459 | -80.96069 | 2479 ft | 156 kts | 179° |
| 2026-05-05 19:24 | 35.30375 | -80.95976 | 2269 ft | 157 kts | 179° |
| 2026-05-05 19:25 | 35.29285 | -80.95881 | 2064 ft | 157 kts | 179° |
| 2026-05-05 19:25 | 35.28208 | -80.95788 | 1857 ft | 155 kts | 179° |
| 2026-05-05 19:25 | 35.27139 | -80.95694 | 1636 ft | 154 kts | 180° |
| 2026-05-05 19:25 | 35.26073 | -80.95604 | 1443 ft | 154 kts | 179° |
| 2026-05-05 19:26 | 35.25006 | -80.95512 | 1220 ft | 154 kts | 179° |
| 2026-05-05 19:26 | 35.23930 | -80.95422 | 1000 ft | 159 kts | 179° |
| 2026-05-05 19:26 | 35.22833 | -80.95319 | 801 ft | 155 kts | 181° |
| 2026-05-05 19:26 | 35.21806 | -80.95241 | 742 ft | 132 kts | 175° |
| 2026-05-05 19:27 | 35.21190 | -80.95186 | 736 ft | 45 kts | 178° |
| 2026-05-05 19:27 | 35.20962 | -80.95170 | 737 ft | 32 kts | 176° |
| 2026-05-05 19:27 | 35.20742 | -80.95138 | 737 ft | 31 kts | 161° |
| 2026-05-05 19:27 | 35.20582 | -80.95020 | 735 ft | 19 kts | 137° |
| 2026-05-05 19:28 | 35.20636 | -80.94936 | 733 ft | 17 kts | 358° |
| 2026-05-05 19:28 | 35.20755 | -80.94947 | 732 ft | 18 kts | 356° |
| 2026-05-05 19:28 | 35.20894 | -80.94958 | 724 ft | 23 kts | 356° |
| 2026-05-05 19:28 | 35.21050 | -80.94972 | 731 ft | 21 kts | 356° |
| 2026-05-05 19:29 | 35.21166 | -80.94940 | 732 ft | 15 kts | 65° |
| 2026-05-05 19:29 | 35.21233 | -80.94844 | 731 ft | 15 kts | 45° |
| 2026-05-05 19:29 | 35.21299 | -80.94725 | 732 ft | 18 kts | 69° |
| 2026-05-05 19:29 | 35.21342 | -80.94581 | 731 ft | 18 kts | 58° |
| 2026-05-05 19:30 | 35.21427 | -80.94463 | 732 ft | 19 kts | 48° |
| 2026-05-05 19:30 | 35.21515 | -80.94343 | 732 ft | 19 kts | 48° |
| 2026-05-05 19:30 | 35.21592 | -80.94239 | 732 ft | 16 kts | 48° |
| 2026-05-05 19:30 | 35.21667 | -80.94136 | 731 ft | 16 kts | 48° |
| 2026-05-05 19:31 | 35.21745 | -80.94029 | 732 ft | 17 kts | 48° |
| 2026-05-05 19:31 | 35.21824 | -80.93919 | 732 ft | 12 kts | 46° |
| 2026-05-05 19:31 | 35.21891 | -80.93913 | 732 ft | 10 kts | 351° |
| 2026-05-05 19:31 | 35.21944 | -80.93877 | 732 ft | 9 kts | 49° |
| 2026-05-05 19:32 | 35.21989 | -80.93815 | 732 ft | 10 kts | 44° |
| 2026-05-05 19:32 | 35.22057 | -80.93796 | 732 ft | 10 kts | 356° |
| 2026-05-05 19:32 | 35.22129 | -80.93819 | 732 ft | 11 kts | 330° |
| 2026-05-05 19:32 | 35.22179 | -80.93892 | 732 ft | 11 kts | 281° |
| 2026-05-05 19:33 | 35.22177 | -80.93956 | 732 ft | 11 kts | 264° |
| 2026-05-05 19:33 | 35.22144 | -80.93989 | 732 ft | 6 kts | 184° |
| 2026-05-05 19:33 | 35.22118 | -80.93987 | 732 ft | 0 kts | 176° |